Chanute Martin Johnson Airport
KCNU : rendu visible

Aérodrome :











RETROUVEZ-NOUS SUR...

 
LOGIN :

S'inscrire | Disclaimer

   EN    FR    IT 

 









Légende :    VFR   VFR Marginal   IFR   IFR Intensif   IFR Très Intensif
Visi : 
Plafond : 
>= 8 km
>= 3000ft
5 à 8 km
1000 à 3000 ft
1500m à 5 km
500 à 1000 ft
800 à 1500m
200 à 500 ft
< 800m
< 200 ft
Symboles :   Orages  Brouillard  Fortes neiges  Fortes précipitations  Vent > 20 kt






- Altitude de l'aérodrome : 1002 ft


KCNU - Chanute Martin Johnson

DERNIER METAR :
  • 230252Z AUTO 17009KT 4SM BR OVC004 02/01 A2995 RMK AO2 SLP148 60000 T00220011 50003

METARs EXPIRÉS :
  • 230225Z AUTO 17008KT 4SM BR OVC004 02/01 A2996 RMK AO2 T00220006
  • 230152Z AUTO 18009KT 4SM BR OVC005 02/01 A2996 RMK AO2 SLP149 T00220006
  • 230052Z AUTO 18011KT 8SM OVC006 02/01 A2995 RMK AO2 RAB28E52 SLP149 P0000 T00220006
  • 222352Z AUTO 18012KT 8SM OVC005 02/01 A2994 RMK AO2 RAE2258 SLP146 P0000 60003 T00220006 10022 20017 53003

TAF KCNU
Valide du 23 à 00h jusqu'au 24 à 00h UTC


222322Z 2300/2324 18014KT 5SM -DZ BR OVC006
FM230900 19007KT 1/2SM -DZ FG OVC003
FM231500 26006KT 1SM BR OVC003
FM231800 30009KT 6SM -SNRA BR OVC008



MET'MAP, la Météo Aéronautique d'un coup d'oeil ! - Copyright ORBIFLY Décembre 2007 - Disclaimer

ORBIFLY MET'MAP TEAM :

Programmation & Développement : Alexandra Zaïnal
Sur une idée originale de : Baudouin d'Aumeries
Assistance à la programmation : Marc-Olivier Méhu
Soutien technique & logistique : Manuel Goepfert

Contact : metmap@orbifly.com




SOURCES & CREDITS :

   NOAA       Earth
Advisory